sensor_id;sensor_type;location;lat;lon;timestamp;temperature;humidity
18721;DHT22;9489;50.948;3.114;2023-09-12T00:01:06;18.80;99.90
18721;DHT22;9489;50.948;3.114;2023-09-12T00:03:33;18.70;99.90
18721;DHT22;9489;50.948;3.114;2023-09-12T00:06:01;18.70;99.90
18721;DHT22;9489;50.948;3.114;2023-09-12T00:08:27;18.80;99.90
18721;DHT22;9489;50.948;3.114;2023-09-12T00:13:29;18.60;99.90
18721;DHT22;9489;50.948;3.114;2023-09-12T00:15:55;18.60;99.90
18721;DHT22;9489;50.948;3.114;2023-09-12T00:18:21;18.60;99.90
18721;DHT22;9489;50.948;3.114;2023-09-12T00:20:47;18.60;99.90
18721;DHT22;9489;50.948;3.114;2023-09-12T00:23:12;18.70;99.90
18721;DHT22;9489;50.948;3.114;2023-09-12T00:25:38;18.70;99.90
18721;DHT22;9489;50.948;3.114;2023-09-12T00:28:04;18.60;99.90
18721;DHT22;9489;50.948;3.114;2023-09-12T00:30:30;18.50;99.90
18721;DHT22;9489;50.948;3.114;2023-09-12T00:32:55;18.50;99.90
18721;DHT22;9489;50.948;3.114;2023-09-12T00:35:21;18.50;99.90
18721;DHT22;9489;50.948;3.114;2023-09-12T00:37:46;18.60;99.90
18721;DHT22;9489;50.948;3.114;2023-09-12T00:40:12;18.60;99.90
18721;DHT22;9489;50.948;3.114;2023-09-12T00:42:38;18.70;99.90
18721;DHT22;9489;50.948;3.114;2023-09-12T00:45:03;18.70;99.90
18721;DHT22;9489;50.948;3.114;2023-09-12T00:47:30;18.70;99.90
18721;DHT22;9489;50.948;3.114;2023-09-12T00:49:58;18.70;99.90
18721;DHT22;9489;50.948;3.114;2023-09-12T00:52:26;18.70;99.90
18721;DHT22;9489;50.948;3.114;2023-09-12T00:54:52;18.70;99.90
18721;DHT22;9489;50.948;3.114;2023-09-12T00:57:19;18.70;99.90
18721;DHT22;9489;50.948;3.114;2023-09-12T00:59:46;18.70;99.90
18721;DHT22;9489;50.948;3.114;2023-09-12T01:02:12;18.70;99.90
18721;DHT22;9489;50.948;3.114;2023-09-12T01:04:38;18.60;99.90
18721;DHT22;9489;50.948;3.114;2023-09-12T01:07:04;18.60;99.90
18721;DHT22;9489;50.948;3.114;2023-09-12T01:09:31;18.60;99.90
18721;DHT22;9489;50.948;3.114;2023-09-12T01:11:57;18.60;99.90
18721;DHT22;9489;50.948;3.114;2023-09-12T01:14:23;18.60;99.90
18721;DHT22;9489;50.948;3.114;2023-09-12T01:16:48;18.60;99.90
18721;DHT22;9489;50.948;3.114;2023-09-12T01:19:16;18.60;99.90
18721;DHT22;9489;50.948;3.114;2023-09-12T01:27:50;18.60;99.90
18721;DHT22;9489;50.948;3.114;2023-09-12T01:30:22;18.60;99.90
18721;DHT22;9489;50.948;3.114;2023-09-12T01:32:49;18.50;99.90
18721;DHT22;9489;50.948;3.114;2023-09-12T01:35:16;18.60;99.90
18721;DHT22;9489;50.948;3.114;2023-09-12T01:37:41;18.60;99.90
18721;DHT22;9489;50.948;3.114;2023-09-12T01:40:07;18.60;99.90
18721;DHT22;9489;50.948;3.114;2023-09-12T01:42:46;18.60;99.90
18721;DHT22;9489;50.948;3.114;2023-09-12T01:45:17;18.50;99.90
18721;DHT22;9489;50.948;3.114;2023-09-12T01:47:44;18.50;99.90
18721;DHT22;9489;50.948;3.114;2023-09-12T01:50:12;18.50;99.90
18721;DHT22;9489;50.948;3.114;2023-09-12T01:52:40;18.50;99.90
18721;DHT22;9489;50.948;3.114;2023-09-12T01:55:06;18.50;99.90
18721;DHT22;9489;50.948;3.114;2023-09-12T01:57:35;18.50;99.90
18721;DHT22;9489;50.948;3.114;2023-09-12T02:00:01;18.50;99.90
18721;DHT22;9489;50.948;3.114;2023-09-12T02:02:27;18.50;99.90
18721;DHT22;9489;50.948;3.114;2023-09-12T02:05:11;18.50;99.90
18721;DHT22;9489;50.948;3.114;2023-09-12T02:07:41;18.50;99.90
18721;DHT22;9489;50.948;3.114;2023-09-12T02:10:08;18.40;99.90
18721;DHT22;9489;50.948;3.114;2023-09-12T02:12:35;18.40;99.90
18721;DHT22;9489;50.948;3.114;2023-09-12T02:15:01;18.30;99.90
18721;DHT22;9489;50.948;3.114;2023-09-12T02:17:28;18.30;99.90
18721;DHT22;9489;50.948;3.114;2023-09-12T02:19:53;18.30;99.90
18721;DHT22;9489;50.948;3.114;2023-09-12T02:22:19;18.40;99.90
18721;DHT22;9489;50.948;3.114;2023-09-12T02:24:45;18.30;99.90
18721;DHT22;9489;50.948;3.114;2023-09-12T02:27:10;18.40;99.90
18721;DHT22;9489;50.948;3.114;2023-09-12T02:29:38;18.40;99.90
18721;DHT22;9489;50.948;3.114;2023-09-12T02:32:04;18.30;99.90
18721;DHT22;9489;50.948;3.114;2023-09-12T02:34:30;18.40;99.90
18721;DHT22;9489;50.948;3.114;2023-09-12T02:36:55;18.40;99.90
18721;DHT22;9489;50.948;3.114;2023-09-12T02:39:21;18.40;99.90
18721;DHT22;9489;50.948;3.114;2023-09-12T02:41:46;18.50;99.90
18721;DHT22;9489;50.948;3.114;2023-09-12T02:44:12;18.50;99.90
18721;DHT22;9489;50.948;3.114;2023-09-12T02:46:38;18.50;99.90
18721;DHT22;9489;50.948;3.114;2023-09-12T02:49:03;18.50;99.90
18721;DHT22;9489;50.948;3.114;2023-09-12T02:51:29;18.50;99.90
18721;DHT22;9489;50.948;3.114;2023-09-12T02:53:55;18.40;99.90
18721;DHT22;9489;50.948;3.114;2023-09-12T02:56:20;18.50;99.90
18721;DHT22;9489;50.948;3.114;2023-09-12T02:58:46;18.50;99.90
18721;DHT22;9489;50.948;3.114;2023-09-12T03:01:16;18.50;99.90
18721;DHT22;9489;50.948;3.114;2023-09-12T03:03:42;18.50;99.90
18721;DHT22;9489;50.948;3.114;2023-09-12T03:06:09;18.50;99.90
18721;DHT22;9489;50.948;3.114;2023-09-12T03:08:35;18.50;99.90
18721;DHT22;9489;50.948;3.114;2023-09-12T03:11:00;18.50;99.90
18721;DHT22;9489;50.948;3.114;2023-09-12T03:13:28;18.50;99.90
18721;DHT22;9489;50.948;3.114;2023-09-12T03:15:54;18.50;99.90
18721;DHT22;9489;50.948;3.114;2023-09-12T03:18:19;18.50;99.90
18721;DHT22;9489;50.948;3.114;2023-09-12T03:20:45;18.50;99.90
18721;DHT22;9489;50.948;3.114;2023-09-12T03:23:11;18.60;99.90
18721;DHT22;9489;50.948;3.114;2023-09-12T03:25:37;18.50;99.90
18721;DHT22;9489;50.948;3.114;2023-09-12T03:28:04;18.50;99.90
18721;DHT22;9489;50.948;3.114;2023-09-12T03:30:32;18.50;99.90
18721;DHT22;9489;50.948;3.114;2023-09-12T03:32:58;18.50;99.90
18721;DHT22;9489;50.948;3.114;2023-09-12T03:35:24;18.40;99.90
18721;DHT22;9489;50.948;3.114;2023-09-12T03:37:49;18.50;99.90
18721;DHT22;9489;50.948;3.114;2023-09-12T03:40:15;18.40;99.90
18721;DHT22;9489;50.948;3.114;2023-09-12T03:42:41;18.40;99.90
18721;DHT22;9489;50.948;3.114;2023-09-12T03:45:07;18.30;99.90
18721;DHT22;9489;50.948;3.114;2023-09-12T03:47:33;18.30;99.90
18721;DHT22;9489;50.948;3.114;2023-09-12T03:49:58;18.30;99.90
18721;DHT22;9489;50.948;3.114;2023-09-12T03:52:24;18.30;99.90
18721;DHT22;9489;50.948;3.114;2023-09-12T03:54:50;18.30;99.90
18721;DHT22;9489;50.948;3.114;2023-09-12T03:57:16;18.30;99.90
18721;DHT22;9489;50.948;3.114;2023-09-12T03:59:41;18.30;99.90
18721;DHT22;9489;50.948;3.114;2023-09-12T04:02:08;18.30;99.90
18721;DHT22;9489;50.948;3.114;2023-09-12T04:04:34;18.20;99.90
18721;DHT22;9489;50.948;3.114;2023-09-12T04:06:59;18.10;99.90
18721;DHT22;9489;50.948;3.114;2023-09-12T04:09:25;18.10;99.90
18721;DHT22;9489;50.948;3.114;2023-09-12T04:11:51;18.10;99.90
18721;DHT22;9489;50.948;3.114;2023-09-12T04:14:16;18.10;99.90
18721;DHT22;9489;50.948;3.114;2023-09-12T04:16:42;18.10;99.90
18721;DHT22;9489;50.948;3.114;2023-09-12T04:19:07;18.00;99.90
18721;DHT22;9489;50.948;3.114;2023-09-12T04:21:33;18.00;99.90
18721;DHT22;9489;50.948;3.114;2023-09-12T04:23:59;17.90;99.90
18721;DHT22;9489;50.948;3.114;2023-09-12T04:26:24;17.90;99.90
18721;DHT22;9489;50.948;3.114;2023-09-12T04:28:50;17.90;99.90
18721;DHT22;9489;50.948;3.114;2023-09-12T04:31:18;17.80;99.90
18721;DHT22;9489;50.948;3.114;2023-09-12T04:33:44;17.80;99.90
18721;DHT22;9489;50.948;3.114;2023-09-12T04:36:10;17.80;99.90
18721;DHT22;9489;50.948;3.114;2023-09-12T04:38:35;17.70;99.90
18721;DHT22;9489;50.948;3.114;2023-09-12T04:41:03;17.80;99.90
18721;DHT22;9489;50.948;3.114;2023-09-12T04:43:31;17.80;99.90
18721;DHT22;9489;50.948;3.114;2023-09-12T04:45:57;17.90;99.90
18721;DHT22;9489;50.948;3.114;2023-09-12T04:48:22;17.80;99.90
18721;DHT22;9489;50.948;3.114;2023-09-12T04:50:48;17.70;99.90
18721;DHT22;9489;50.948;3.114;2023-09-12T04:53:14;17.60;99.90
18721;DHT22;9489;50.948;3.114;2023-09-12T04:55:40;17.60;99.90
18721;DHT22;9489;50.948;3.114;2023-09-12T04:58:06;17.60;99.90
18721;DHT22;9489;50.948;3.114;2023-09-12T05:00:32;17.60;99.90
18721;DHT22;9489;50.948;3.114;2023-09-12T05:02:58;17.50;99.90
18721;DHT22;9489;50.948;3.114;2023-09-12T05:05:23;17.50;99.90
18721;DHT22;9489;50.948;3.114;2023-09-12T05:07:50;17.50;99.90
18721;DHT22;9489;50.948;3.114;2023-09-12T05:10:17;17.50;99.90
18721;DHT22;9489;50.948;3.114;2023-09-12T05:12:43;17.50;99.90
18721;DHT22;9489;50.948;3.114;2023-09-12T05:15:09;17.50;99.90
18721;DHT22;9489;50.948;3.114;2023-09-12T05:17:34;17.50;99.90
18721;DHT22;9489;50.948;3.114;2023-09-12T05:20:01;17.50;99.90
18721;DHT22;9489;50.948;3.114;2023-09-12T05:22:27;17.50;99.90
18721;DHT22;9489;50.948;3.114;2023-09-12T05:24:53;17.60;99.90
18721;DHT22;9489;50.948;3.114;2023-09-12T05:27:18;17.70;99.90
18721;DHT22;9489;50.948;3.114;2023-09-12T05:29:44;17.60;99.90
18721;DHT22;9489;50.948;3.114;2023-09-12T05:32:10;17.60;99.90
18721;DHT22;9489;50.948;3.114;2023-09-12T05:34:35;17.60;99.90
18721;DHT22;9489;50.948;3.114;2023-09-12T05:37:01;17.50;99.90
18721;DHT22;9489;50.948;3.114;2023-09-12T05:39:27;17.50;99.90
18721;DHT22;9489;50.948;3.114;2023-09-12T05:41:52;17.50;99.90
18721;DHT22;9489;50.948;3.114;2023-09-12T05:44:18;17.50;99.90
18721;DHT22;9489;50.948;3.114;2023-09-12T05:46:47;17.40;99.90
18721;DHT22;9489;50.948;3.114;2023-09-12T05:49:14;17.40;99.90
18721;DHT22;9489;50.948;3.114;2023-09-12T05:51:40;17.40;99.90
18721;DHT22;9489;50.948;3.114;2023-09-12T05:54:06;17.40;99.90
18721;DHT22;9489;50.948;3.114;2023-09-12T05:56:34;17.40;99.90
18721;DHT22;9489;50.948;3.114;2023-09-12T05:58:59;17.50;99.90
18721;DHT22;9489;50.948;3.114;2023-09-12T06:01:25;17.50;99.90
18721;DHT22;9489;50.948;3.114;2023-09-12T06:03:51;17.50;99.90
18721;DHT22;9489;50.948;3.114;2023-09-12T06:06:16;17.50;99.90
18721;DHT22;9489;50.948;3.114;2023-09-12T06:08:42;17.60;99.90
18721;DHT22;9489;50.948;3.114;2023-09-12T06:11:08;17.60;99.90
18721;DHT22;9489;50.948;3.114;2023-09-12T06:13:33;17.80;99.90
18721;DHT22;9489;50.948;3.114;2023-09-12T06:16:03;17.80;99.90
18721;DHT22;9489;50.948;3.114;2023-09-12T06:18:28;17.80;99.90
18721;DHT22;9489;50.948;3.114;2023-09-12T06:20:57;18.00;99.90
18721;DHT22;9489;50.948;3.114;2023-09-12T06:23:23;18.00;99.90
18721;DHT22;9489;50.948;3.114;2023-09-12T06:25:49;18.10;99.90
18721;DHT22;9489;50.948;3.114;2023-09-12T06:28:28;18.10;99.90
18721;DHT22;9489;50.948;3.114;2023-09-12T06:30:54;18.20;99.90
18721;DHT22;9489;50.948;3.114;2023-09-12T06:33:20;18.20;99.90
18721;DHT22;9489;50.948;3.114;2023-09-12T06:35:54;18.40;99.90
18721;DHT22;9489;50.948;3.114;2023-09-12T06:38:21;18.50;99.90
18721;DHT22;9489;50.948;3.114;2023-09-12T06:40:47;18.60;99.90
18721;DHT22;9489;50.948;3.114;2023-09-12T06:43:14;18.70;99.90
18721;DHT22;9489;50.948;3.114;2023-09-12T06:45:43;18.90;99.90
18721;DHT22;9489;50.948;3.114;2023-09-12T06:48:09;19.10;99.90
18721;DHT22;9489;50.948;3.114;2023-09-12T06:50:35;19.20;99.90
18721;DHT22;9489;50.948;3.114;2023-09-12T06:53:03;19.30;99.90
18721;DHT22;9489;50.948;3.114;2023-09-12T06:55:29;19.50;99.90
18721;DHT22;9489;50.948;3.114;2023-09-12T06:57:54;19.80;99.90
18721;DHT22;9489;50.948;3.114;2023-09-12T07:00:20;19.80;99.90
18721;DHT22;9489;50.948;3.114;2023-09-12T07:02:46;19.90;99.90
18721;DHT22;9489;50.948;3.114;2023-09-12T07:05:11;19.80;99.90
18721;DHT22;9489;50.948;3.114;2023-09-12T07:07:37;19.80;99.90
18721;DHT22;9489;50.948;3.114;2023-09-12T07:10:03;19.90;99.90
18721;DHT22;9489;50.948;3.114;2023-09-12T07:12:29;19.90;99.90
18721;DHT22;9489;50.948;3.114;2023-09-12T07:14:55;19.90;99.90
18721;DHT22;9489;50.948;3.114;2023-09-12T07:17:21;19.90;99.90
18721;DHT22;9489;50.948;3.114;2023-09-12T07:19:47;19.90;99.90
18721;DHT22;9489;50.948;3.114;2023-09-12T07:22:12;19.80;99.90
18721;DHT22;9489;50.948;3.114;2023-09-12T07:24:38;19.80;99.90
18721;DHT22;9489;50.948;3.114;2023-09-12T07:27:04;19.80;99.90
18721;DHT22;9489;50.948;3.114;2023-09-12T07:29:30;19.70;99.90
18721;DHT22;9489;50.948;3.114;2023-09-12T07:31:55;19.80;99.90
18721;DHT22;9489;50.948;3.114;2023-09-12T07:34:23;19.80;99.90
18721;DHT22;9489;50.948;3.114;2023-09-12T07:36:49;19.80;99.90
18721;DHT22;9489;50.948;3.114;2023-09-12T07:39:17;19.90;99.90
18721;DHT22;9489;50.948;3.114;2023-09-12T07:41:42;19.90;99.90
18721;DHT22;9489;50.948;3.114;2023-09-12T07:44:08;19.90;99.90
18721;DHT22;9489;50.948;3.114;2023-09-12T07:46:39;20.00;99.90
18721;DHT22;9489;50.948;3.114;2023-09-12T07:49:05;20.00;99.90
18721;DHT22;9489;50.948;3.114;2023-09-12T07:51:30;20.00;99.90
18721;DHT22;9489;50.948;3.114;2023-09-12T07:53:56;20.10;99.90
18721;DHT22;9489;50.948;3.114;2023-09-12T07:56:21;20.10;99.90
18721;DHT22;9489;50.948;3.114;2023-09-12T07:58:48;20.10;99.90
18721;DHT22;9489;50.948;3.114;2023-09-12T08:01:14;20.20;99.90
18721;DHT22;9489;50.948;3.114;2023-09-12T08:03:42;20.10;99.90
18721;DHT22;9489;50.948;3.114;2023-09-12T08:06:08;20.00;99.90
18721;DHT22;9489;50.948;3.114;2023-09-12T08:08:34;20.10;99.90
18721;DHT22;9489;50.948;3.114;2023-09-12T08:11:00;20.10;99.90
18721;DHT22;9489;50.948;3.114;2023-09-12T08:13:29;20.10;99.90
18721;DHT22;9489;50.948;3.114;2023-09-12T08:15:56;20.20;99.90
18721;DHT22;9489;50.948;3.114;2023-09-12T08:18:25;20.20;99.90
18721;DHT22;9489;50.948;3.114;2023-09-12T08:20:51;20.40;99.90
18721;DHT22;9489;50.948;3.114;2023-09-12T08:23:16;20.60;99.90
18721;DHT22;9489;50.948;3.114;2023-09-12T08:25:42;20.70;99.90
18721;DHT22;9489;50.948;3.114;2023-09-12T08:28:08;21.00;99.90
18721;DHT22;9489;50.948;3.114;2023-09-12T08:30:33;21.30;99.90
18721;DHT22;9489;50.948;3.114;2023-09-12T08:32:59;21.30;99.90
18721;DHT22;9489;50.948;3.114;2023-09-12T08:35:24;21.70;99.90
18721;DHT22;9489;50.948;3.114;2023-09-12T08:37:52;22.00;99.90
18721;DHT22;9489;50.948;3.114;2023-09-12T08:40:17;22.30;99.90
18721;DHT22;9489;50.948;3.114;2023-09-12T08:42:44;22.30;99.90
18721;DHT22;9489;50.948;3.114;2023-09-12T08:45:15;22.50;99.90
18721;DHT22;9489;50.948;3.114;2023-09-12T08:47:42;22.60;99.90
18721;DHT22;9489;50.948;3.114;2023-09-12T08:50:13;22.70;99.90
18721;DHT22;9489;50.948;3.114;2023-09-12T08:52:42;22.40;99.90
18721;DHT22;9489;50.948;3.114;2023-09-12T08:55:09;22.40;99.90
18721;DHT22;9489;50.948;3.114;2023-09-12T08:57:37;22.60;99.90
18721;DHT22;9489;50.948;3.114;2023-09-12T09:00:06;22.50;99.90
18721;DHT22;9489;50.948;3.114;2023-09-12T09:02:33;22.50;99.90
18721;DHT22;9489;50.948;3.114;2023-09-12T09:05:01;22.40;99.90
18721;DHT22;9489;50.948;3.114;2023-09-12T09:07:34;22.50;99.90
18721;DHT22;9489;50.948;3.114;2023-09-12T09:10:07;22.40;99.90
18721;DHT22;9489;50.948;3.114;2023-09-12T09:12:34;22.40;99.90
18721;DHT22;9489;50.948;3.114;2023-09-12T09:15:26;22.30;99.90
18721;DHT22;9489;50.948;3.114;2023-09-12T09:17:53;22.40;99.90
18721;DHT22;9489;50.948;3.114;2023-09-12T09:20:28;22.30;99.90
18721;DHT22;9489;50.948;3.114;2023-09-12T09:22:59;22.40;99.90
18721;DHT22;9489;50.948;3.114;2023-09-12T09:25:25;22.50;99.90
18721;DHT22;9489;50.948;3.114;2023-09-12T09:27:50;22.80;99.90
18721;DHT22;9489;50.948;3.114;2023-09-12T09:30:16;22.90;99.90
18721;DHT22;9489;50.948;3.114;2023-09-12T09:32:43;22.90;99.90
18721;DHT22;9489;50.948;3.114;2023-09-12T09:35:11;22.90;99.90
18721;DHT22;9489;50.948;3.114;2023-09-12T09:37:37;22.90;99.90
18721;DHT22;9489;50.948;3.114;2023-09-12T09:40:05;22.60;99.90
18721;DHT22;9489;50.948;3.114;2023-09-12T09:42:31;22.50;99.90
18721;DHT22;9489;50.948;3.114;2023-09-12T09:44:57;22.50;99.90
18721;DHT22;9489;50.948;3.114;2023-09-12T09:47:23;22.30;99.90
18721;DHT22;9489;50.948;3.114;2023-09-12T09:49:51;22.20;99.90
18721;DHT22;9489;50.948;3.114;2023-09-12T09:52:25;22.40;99.90
18721;DHT22;9489;50.948;3.114;2023-09-12T09:54:51;22.30;99.90
18721;DHT22;9489;50.948;3.114;2023-09-12T09:57:16;22.30;99.90
18721;DHT22;9489;50.948;3.114;2023-09-12T09:59:42;22.10;99.90
18721;DHT22;9489;50.948;3.114;2023-09-12T10:02:16;22.00;99.90
18721;DHT22;9489;50.948;3.114;2023-09-12T10:04:45;21.90;99.90
18721;DHT22;9489;50.948;3.114;2023-09-12T10:07:11;21.80;99.90
18721;DHT22;9489;50.948;3.114;2023-09-12T10:09:37;21.90;99.90
18721;DHT22;9489;50.948;3.114;2023-09-12T10:12:02;22.00;99.90
18721;DHT22;9489;50.948;3.114;2023-09-12T10:14:29;22.20;99.90
18721;DHT22;9489;50.948;3.114;2023-09-12T10:17:01;22.30;99.90
18721;DHT22;9489;50.948;3.114;2023-09-12T10:19:35;22.40;99.90
18721;DHT22;9489;50.948;3.114;2023-09-12T10:22:20;22.40;99.90
18721;DHT22;9489;50.948;3.114;2023-09-12T10:24:48;22.40;99.90
18721;DHT22;9489;50.948;3.114;2023-09-12T10:27:15;22.40;99.90
18721;DHT22;9489;50.948;3.114;2023-09-12T10:29:40;22.30;99.90
18721;DHT22;9489;50.948;3.114;2023-09-12T10:32:06;22.30;99.90
18721;DHT22;9489;50.948;3.114;2023-09-12T10:34:34;22.40;99.90
18721;DHT22;9489;50.948;3.114;2023-09-12T10:37:03;22.50;99.90
18721;DHT22;9489;50.948;3.114;2023-09-12T10:39:32;22.50;99.90
18721;DHT22;9489;50.948;3.114;2023-09-12T10:41:58;22.50;99.90
18721;DHT22;9489;50.948;3.114;2023-09-12T10:44:24;22.70;99.90
18721;DHT22;9489;50.948;3.114;2023-09-12T10:46:51;22.70;99.90
18721;DHT22;9489;50.948;3.114;2023-09-12T10:49:17;22.80;99.90
18721;DHT22;9489;50.948;3.114;2023-09-12T10:51:45;23.00;99.90
18721;DHT22;9489;50.948;3.114;2023-09-12T10:54:16;23.00;99.90
18721;DHT22;9489;50.948;3.114;2023-09-12T10:57:02;22.90;99.90
18721;DHT22;9489;50.948;3.114;2023-09-12T10:59:28;22.80;99.90
18721;DHT22;9489;50.948;3.114;2023-09-12T11:04:58;22.80;99.90
18721;DHT22;9489;50.948;3.114;2023-09-12T11:07:44;22.60;99.90
18721;DHT22;9489;50.948;3.114;2023-09-12T11:12:45;22.50;99.90
18721;DHT22;9489;50.948;3.114;2023-09-12T11:15:11;22.60;99.90
18721;DHT22;9489;50.948;3.114;2023-09-12T11:17:41;22.50;99.90
18721;DHT22;9489;50.948;3.114;2023-09-12T11:20:08;22.40;99.90
18721;DHT22;9489;50.948;3.114;2023-09-12T11:22:40;22.20;99.90
18721;DHT22;9489;50.948;3.114;2023-09-12T11:30:22;22.80;99.90
18721;DHT22;9489;50.948;3.114;2023-09-12T11:32:53;23.10;99.90
18721;DHT22;9489;50.948;3.114;2023-09-12T11:35:23;23.40;99.90
18721;DHT22;9489;50.948;3.114;2023-09-12T11:37:53;23.60;99.90
18721;DHT22;9489;50.948;3.114;2023-09-12T11:40:42;24.40;99.90
18721;DHT22;9489;50.948;3.114;2023-09-12T11:43:20;25.50;99.90
18721;DHT22;9489;50.948;3.114;2023-09-12T11:45:46;27.20;99.90
18721;DHT22;9489;50.948;3.114;2023-09-12T11:48:12;28.50;99.90
18721;DHT22;9489;50.948;3.114;2023-09-12T11:50:38;29.50;99.90
18721;DHT22;9489;50.948;3.114;2023-09-12T11:53:08;30.70;99.90
18721;DHT22;9489;50.948;3.114;2023-09-12T11:55:44;31.20;99.90
18721;DHT22;9489;50.948;3.114;2023-09-12T11:58:14;32.60;99.90
18721;DHT22;9489;50.948;3.114;2023-09-12T12:00:48;32.90;99.90
18721;DHT22;9489;50.948;3.114;2023-09-12T12:03:15;33.50;99.90
18721;DHT22;9489;50.948;3.114;2023-09-12T12:05:41;33.90;99.90
18721;DHT22;9489;50.948;3.114;2023-09-12T12:08:08;34.70;99.90
18721;DHT22;9489;50.948;3.114;2023-09-12T12:10:34;35.30;99.90
18721;DHT22;9489;50.948;3.114;2023-09-12T12:13:00;35.30;99.90
18721;DHT22;9489;50.948;3.114;2023-09-12T12:15:27;33.70;99.90
18721;DHT22;9489;50.948;3.114;2023-09-12T12:17:56;34.60;99.90
18721;DHT22;9489;50.948;3.114;2023-09-12T12:20:23;34.80;99.90
18721;DHT22;9489;50.948;3.114;2023-09-12T12:22:49;34.80;99.90
18721;DHT22;9489;50.948;3.114;2023-09-12T12:25:18;34.60;99.90
18721;DHT22;9489;50.948;3.114;2023-09-12T12:27:44;34.60;99.90
18721;DHT22;9489;50.948;3.114;2023-09-12T12:30:11;34.80;99.90
18721;DHT22;9489;50.948;3.114;2023-09-12T12:32:45;34.80;99.90
18721;DHT22;9489;50.948;3.114;2023-09-12T12:35:21;34.40;99.90
18721;DHT22;9489;50.948;3.114;2023-09-12T12:37:53;33.80;99.90
18721;DHT22;9489;50.948;3.114;2023-09-12T12:40:19;32.80;99.90
18721;DHT22;9489;50.948;3.114;2023-09-12T12:42:45;31.60;99.90
18721;DHT22;9489;50.948;3.114;2023-09-12T12:45:22;31.60;99.90
18721;DHT22;9489;50.948;3.114;2023-09-12T12:47:56;31.30;99.90
18721;DHT22;9489;50.948;3.114;2023-09-12T12:50:22;30.80;99.90
18721;DHT22;9489;50.948;3.114;2023-09-12T12:52:48;30.70;99.90
18721;DHT22;9489;50.948;3.114;2023-09-12T12:55:15;30.40;99.90
18721;DHT22;9489;50.948;3.114;2023-09-12T12:57:43;29.70;99.90
18721;DHT22;9489;50.948;3.114;2023-09-12T13:00:16;30.40;99.90
18721;DHT22;9489;50.948;3.114;2023-09-12T13:02:44;31.40;99.90
18721;DHT22;9489;50.948;3.114;2023-09-12T13:05:29;32.20;99.90
18721;DHT22;9489;50.948;3.114;2023-09-12T13:07:55;33.00;99.90
18721;DHT22;9489;50.948;3.114;2023-09-12T13:10:22;33.20;99.90
18721;DHT22;9489;50.948;3.114;2023-09-12T13:12:49;33.10;99.90
18721;DHT22;9489;50.948;3.114;2023-09-12T13:15:15;33.50;99.90
18721;DHT22;9489;50.948;3.114;2023-09-12T13:17:41;34.10;99.90
18721;DHT22;9489;50.948;3.114;2023-09-12T13:20:08;34.50;99.90
18721;DHT22;9489;50.948;3.114;2023-09-12T13:22:34;35.00;99.90
18721;DHT22;9489;50.948;3.114;2023-09-12T13:25:00;35.20;99.70
18721;DHT22;9489;50.948;3.114;2023-09-12T13:27:26;35.00;99.70
18721;DHT22;9489;50.948;3.114;2023-09-12T13:29:51;35.20;99.30
18721;DHT22;9489;50.948;3.114;2023-09-12T13:32:17;34.70;98.80
18721;DHT22;9489;50.948;3.114;2023-09-12T13:34:47;34.60;98.70
18721;DHT22;9489;50.948;3.114;2023-09-12T13:37:12;35.00;98.50
18721;DHT22;9489;50.948;3.114;2023-09-12T13:39:38;34.70;97.50
18721;DHT22;9489;50.948;3.114;2023-09-12T13:42:06;34.00;98.40
18721;DHT22;9489;50.948;3.114;2023-09-12T13:44:33;33.70;99.90
18721;DHT22;9489;50.948;3.114;2023-09-12T13:46:59;33.20;99.90
18721;DHT22;9489;50.948;3.114;2023-09-12T13:49:24;32.60;99.90
18721;DHT22;9489;50.948;3.114;2023-09-12T13:51:50;31.80;99.90
18721;DHT22;9489;50.948;3.114;2023-09-12T13:54:16;30.80;99.90
18721;DHT22;9489;50.948;3.114;2023-09-12T13:56:42;29.80;99.90
18721;DHT22;9489;50.948;3.114;2023-09-12T13:59:07;29.40;99.90
18721;DHT22;9489;50.948;3.114;2023-09-12T14:01:33;29.50;99.90
18721;DHT22;9489;50.948;3.114;2023-09-12T14:03:59;29.60;99.90
18721;DHT22;9489;50.948;3.114;2023-09-12T14:06:25;29.80;99.90
18721;DHT22;9489;50.948;3.114;2023-09-12T14:08:52;29.60;99.90
18721;DHT22;9489;50.948;3.114;2023-09-12T14:11:17;29.90;99.90
18721;DHT22;9489;50.948;3.114;2023-09-12T14:13:43;29.90;99.90
18721;DHT22;9489;50.948;3.114;2023-09-12T14:16:09;30.00;99.90
18721;DHT22;9489;50.948;3.114;2023-09-12T14:18:34;29.70;99.90
18721;DHT22;9489;50.948;3.114;2023-09-12T14:21:00;29.00;99.90
18721;DHT22;9489;50.948;3.114;2023-09-12T14:23:26;28.90;99.90
18721;DHT22;9489;50.948;3.114;2023-09-12T14:25:52;28.80;99.90
18721;DHT22;9489;50.948;3.114;2023-09-12T14:28:18;28.30;99.90
18721;DHT22;9489;50.948;3.114;2023-09-12T14:30:43;28.10;99.90
18721;DHT22;9489;50.948;3.114;2023-09-12T14:33:14;27.90;99.90
18721;DHT22;9489;50.948;3.114;2023-09-12T14:35:40;27.60;99.90
18721;DHT22;9489;50.948;3.114;2023-09-12T14:38:07;27.60;99.90
18721;DHT22;9489;50.948;3.114;2023-09-12T14:40:33;27.20;99.90
18721;DHT22;9489;50.948;3.114;2023-09-12T14:42:59;27.00;99.90
18721;DHT22;9489;50.948;3.114;2023-09-12T14:45:27;26.60;99.90
18721;DHT22;9489;50.948;3.114;2023-09-12T14:47:52;26.40;99.90
18721;DHT22;9489;50.948;3.114;2023-09-12T14:50:20;26.20;99.90
18721;DHT22;9489;50.948;3.114;2023-09-12T14:52:46;26.00;99.90
18721;DHT22;9489;50.948;3.114;2023-09-12T14:55:11;25.70;99.90
18721;DHT22;9489;50.948;3.114;2023-09-12T14:57:37;25.50;99.90
18721;DHT22;9489;50.948;3.114;2023-09-12T15:00:03;25.40;99.90
18721;DHT22;9489;50.948;3.114;2023-09-12T15:02:29;25.20;99.90
18721;DHT22;9489;50.948;3.114;2023-09-12T15:05:01;25.00;99.90
18721;DHT22;9489;50.948;3.114;2023-09-12T15:07:30;24.90;99.90
18721;DHT22;9489;50.948;3.114;2023-09-12T15:09:56;24.50;99.90
18721;DHT22;9489;50.948;3.114;2023-09-12T15:12:22;24.50;99.90
18721;DHT22;9489;50.948;3.114;2023-09-12T15:14:49;24.30;99.90
18721;DHT22;9489;50.948;3.114;2023-09-12T15:17:15;24.20;99.90
18721;DHT22;9489;50.948;3.114;2023-09-12T15:19:40;24.20;99.90
18721;DHT22;9489;50.948;3.114;2023-09-12T15:22:07;24.00;99.90
18721;DHT22;9489;50.948;3.114;2023-09-12T15:24:33;23.90;99.90
18721;DHT22;9489;50.948;3.114;2023-09-12T15:26:59;23.90;99.90
18721;DHT22;9489;50.948;3.114;2023-09-12T15:29:24;24.00;99.90
18721;DHT22;9489;50.948;3.114;2023-09-12T15:31:50;23.90;99.90
18721;DHT22;9489;50.948;3.114;2023-09-12T15:34:15;23.70;99.90
18721;DHT22;9489;50.948;3.114;2023-09-12T15:36:44;23.80;99.90
18721;DHT22;9489;50.948;3.114;2023-09-12T15:39:10;23.70;99.90
18721;DHT22;9489;50.948;3.114;2023-09-12T15:41:36;23.60;99.90
18721;DHT22;9489;50.948;3.114;2023-09-12T15:44:01;23.60;99.90
18721;DHT22;9489;50.948;3.114;2023-09-12T15:46:29;23.50;99.90
18721;DHT22;9489;50.948;3.114;2023-09-12T15:48:54;23.50;99.90
18721;DHT22;9489;50.948;3.114;2023-09-12T15:51:23;23.50;99.90
18721;DHT22;9489;50.948;3.114;2023-09-12T15:53:49;23.60;99.90
18721;DHT22;9489;50.948;3.114;2023-09-12T15:56:15;23.60;99.90
18721;DHT22;9489;50.948;3.114;2023-09-12T15:58:41;23.40;99.90
18721;DHT22;9489;50.948;3.114;2023-09-12T16:01:07;23.40;99.90
18721;DHT22;9489;50.948;3.114;2023-09-12T16:03:32;23.40;99.90